< Typhoon 198021 1980 Season Typhoon 198023 >
Typhoon 198022 (CARY)
General InformationTrack Information on Google MapsDetailed Wind Information || Disaster Info.ResourceGoogle EarthGE AnimationAtom FeedGeoJSON
Detalied Best Track (Time Zone = UTC)
Year Month Day Hour Lat. Long. Pressure (hPa) Wind (kt) Class Image Chart
1980 10 28 06 10.9 128.0 1004 0 2 -- Chart
1980 10 28 12 12.1 126.0 1004 0 2 -- Chart
1980 10 28 18 13.0 123.3 1004 0 2 -- Chart
1980 10 29 00 13.7 122.3 1004 0 2 -- Chart
1980 10 29 06 15.0 121.5 1002 0 2 -- Chart
1980 10 29 12 15.7 119.6 1000 0 2 -- Chart
1980 10 29 18 16.0 118.2 1000 0 2 -- Chart
1980 10 30 00 16.1 117.0 998 40 3 -- Chart
1980 10 30 06 16.2 116.4 996 40 3 -- Chart
1980 10 30 12 16.2 115.8 996 40 3 -- Chart
1980 10 30 18 16.1 115.1 998 40 3 -- Chart
1980 10 31 00 16.0 114.6 1000 45 3 -- Chart
1980 10 31 06 15.6 114.3 1000 40 3 -- Chart
1980 10 31 12 15.2 113.9 1000 40 3 -- Chart
1980 10 31 18 14.7 113.3 1000 35 3 -- Chart
1980 11 1 00 14.6 112.7 998 35 3 -- Chart
1980 11 1 06 14.5 112.0 996 40 3 -- Chart
1980 11 1 12 14.3 111.0 996 40 3 -- Chart
1980 11 1 18 13.6 110.3 996 40 3 -- Chart
1980 11 2 00 13.0 110.0 1000 0 2 -- Chart
1980 11 2 06 12.0 109.0 1006 0 2 -- Chart
1980 11 2 12 11.0 108.5 1008 0 2 -- Chart
1980 11 2 18 10.0 108.0 1008 0 2 -- Chart
Japan Meteorological Agency Best Track Data | Correction Date : 1992-10-21
< Typhoon 198021 1980 Season Typhoon 198023 >

Help